ZBAA/PEK METAR and TAF weather

Enter ICAO airport designator
Station Type Date Time Source
ZBAA METAR 2020/08/05 15:30 UTC NOAA

ZBAA 051530Z VRB01MPS CAVOK 23/23 Q1007 NOSIG


Station Type Date Time Source
ZBAA Decoded METAR 2020/08/05 15:30 UTC NOAA

Beijing, China (ZBAA) 39-56N 116-17E 55M
Aug 05, 2020 - 11:30 AM EDT / 2020.08.05 1530 UTC
Wind: Variable at 2 MPH (2 KT):0
Visibility: greater than 7 mile(s):0
Temperature: 73 F (23 C)
Dew Point: 73 F (23 C)
Relative Humidity: 100%
Pressure (altimeter): 29.74 in. Hg (1007 hPa)
ob: ZBAA 051530Z VRB01MPS CAVOK 23/23 Q1007 NOSIG
cycle: 15

Station Type Date Time Source
ZBAA TAF 2020/08/05 18:00 UTC NOAA

TAF ZBAA 051503Z 0518/0618 16004MPS 5000 BR NSC TX32/0607Z TN20/0521Z

Example: see airport list